SBAN

Base Aérea Airport

Anápolis, Brazil
TAF SBAN 260800Z 2612/2624 07005KT 7000 SCT030 TX26/2616Z TN22/2623Z PROB30 2616/2618 BKN030 BECMG 2618/2620 12005KT 7000 SCT035 PROB30 2618/2621 BKN030 RMK PDE
Issued Valid From Valid To
Apr-26 @ 08:00 UTC
(6 hours ago)
Apr-26 @ 12:00 UTC
(2 hours ago)
Apr-27 @ 00:00 UTC
(in 10 hours)
Apr-26 @ 12:00 to Apr-26 @ 18:00
TAF SBAN 260800Z 2612/2624 07005KT 7000 SCT030 TX26/2616Z TN22/2623Z
Wind Visibility Clouds
70° at 5 knots 7,001 meters
  • Scattered at 3,000' AGL
Probable  (Probability 30%) Apr-26 @ 16:00 to Apr-26 @ 18:00
PROB30 2616/2618 BKN030
Clouds
  • Broken at 3,000' AGL
Probable  (Probability 30%) Apr-26 @ 18:00 to Apr-26 @ 21:00
PROB30 2618/2621 BKN030 RMK PDE
Clouds
  • Broken at 3,000' AGL
Becoming Apr-26 @ 18:00 to Apr-27 @ 00:00
BECMG 2618/2620 12005KT 7000 SCT035
Wind Visibility Clouds
120° at 5 knots 7,001 meters
  • Scattered at 3,500' AGL
TAF SBAN 260800Z 2612/2624 07005KT 7000 SCT030 TX26/2616Z TN22/2623Z PROB30 2616/2618 BKN030 BECMG 2618/2620 12005KT 7000 SCT035 PROB30 2618/2621 BKN030 RMK PDE
Issued Apr-26 @ 08:00 UTC
(6 hours ago)
Valid From Apr-26 @ 12:00 UTC
(2 hours ago)
Valid To Apr-27 @ 00:00 UTC
(in 10 hours)
Apr-26 @ 12:00 - Apr-26 @ 18:00
Wind Visibility
70° at 5 knots 7,001 meters
Clouds
  • Scattered at 3,000' AGL
Probability 30% Probable Apr-26 @ 16:00 - Apr-26 @ 18:00
Clouds
  • Broken at 3,000' AGL
Probability 30% Probable Apr-26 @ 18:00 - Apr-26 @ 21:00
Clouds
  • Broken at 3,000' AGL
Becoming Apr-26 @ 18:00 - Apr-27 @ 00:00
Wind Visibility
120° at 5 knots 7,001 meters
Clouds
  • Scattered at 3,500' AGL